createdAt,value
2016-11-03T00:00:29.025Z,22.54
2016-11-03T00:01:40.141Z,22.49
2016-11-03T00:02:50.918Z,22.39
2016-11-03T00:04:01.659Z,22.27
2016-11-03T00:05:12.942Z,22.22
2016-11-03T00:06:24.382Z,22.19
2016-11-03T00:07:35.534Z,21.97
2016-11-03T00:08:46.624Z,21.85
2016-11-03T00:09:58.092Z,21.83
2016-11-03T00:11:09.463Z,21.85
2016-11-03T00:12:20.163Z,21.69
2016-11-03T00:13:30.890Z,21.81
2016-11-03T00:14:41.655Z,21.56
2016-11-03T00:15:52.741Z,21.56
2016-11-03T00:17:03.394Z,21.44
2016-11-03T00:18:14.508Z,21.34
2016-11-03T00:19:25.653Z,21.23
2016-11-03T00:20:37.163Z,21.16
2016-11-03T00:21:47.861Z,21.19
2016-11-03T00:22:59.051Z,21.14
2016-11-03T00:24:10.176Z,21.01
2016-11-03T00:25:21.343Z,21.11
2016-11-03T00:26:32.904Z,20.91
2016-11-03T00:27:44.033Z,20.93
2016-11-03T00:28:55.131Z,20.96
2016-11-03T00:30:06.654Z,20.95
2016-11-03T00:31:17.786Z,20.9
2016-11-03T00:32:28.835Z,20.95
2016-11-03T00:33:39.538Z,20.91
2016-11-03T00:34:51.117Z,20.87
2016-11-03T00:36:02.234Z,20.91
2016-11-03T00:37:13.677Z,20.89
2016-11-03T00:38:24.431Z,21.06
2016-11-03T00:39:35.205Z,21.08
2016-11-03T00:40:47.104Z,21.05
2016-11-03T00:41:58.268Z,21.14
2016-11-03T00:43:09.011Z,21.06
2016-11-03T00:44:20.870Z,21.04
2016-11-03T00:45:32.400Z,21.14
2016-11-03T00:46:43.631Z,21.13
2016-11-03T00:47:54.733Z,21.13
2016-11-03T00:49:05.930Z,21.04
2016-11-03T00:50:16.669Z,21.13
2016-11-03T00:51:27.852Z,21.14
2016-11-03T00:52:39.023Z,21.14
2016-11-03T00:53:49.725Z,21.16
2016-11-03T00:55:01.545Z,21.11
2016-11-03T00:56:12.803Z,21.17
2016-11-03T00:57:23.529Z,21.17
2016-11-03T00:58:34.730Z,21.14
2016-11-03T00:59:46.183Z,21.13
2016-11-03T01:00:57.234Z,21.13
2016-11-03T01:02:08.828Z,21.16
2016-11-03T01:03:20.128Z,21.17
2016-11-03T01:04:31.272Z,21.13
2016-11-03T01:05:41.894Z,21.19
2016-11-03T01:06:53.023Z,21.3
2016-11-03T01:08:04.183Z,21.38
2016-11-03T01:09:15.326Z,21.35
2016-11-03T01:10:26.947Z,21.39
2016-11-03T01:11:37.665Z,21.35
2016-11-03T01:12:48.438Z,21.36
2016-11-03T01:13:59.529Z,21.46
2016-11-03T01:15:10.599Z,21.42
2016-11-03T01:16:21.337Z,21.51
2016-11-03T01:17:32.439Z,21.42
2016-11-03T01:18:43.193Z,21.44
2016-11-03T01:19:54.300Z,21.35
2016-11-03T01:21:05.889Z,21.3
2016-11-03T01:22:17.089Z,21.41
2016-11-03T01:23:28.904Z,21.36
2016-11-03T01:24:39.630Z,21.46
2016-11-03T01:25:50.340Z,21.42
2016-11-03T01:27:01.396Z,21.46
2016-11-03T01:28:12.679Z,21.38
2016-11-03T01:29:23.721Z,21.46
2016-11-03T01:30:34.460Z,21.51
2016-11-03T01:31:45.982Z,21.54
2016-11-03T01:32:56.697Z,21.51
2016-11-03T01:34:07.911Z,21.59
2016-11-03T01:35:19.406Z,21.56
2016-11-03T01:36:30.529Z,21.63
2016-11-03T01:37:41.289Z,21.63
2016-11-03T01:38:52.040Z,21.59
2016-11-03T01:40:02.769Z,21.57
2016-11-03T01:41:13.478Z,21.64
2016-11-03T01:42:24.651Z,21.66
2016-11-03T01:43:35.339Z,21.69
2016-11-03T01:44:46.444Z,21.71
2016-11-03T01:45:57.197Z,21.57
2016-11-03T01:47:07.841Z,21.56
2016-11-03T01:48:18.904Z,21.57
2016-11-03T01:49:29.687Z,21.48
2016-11-03T01:50:41.186Z,21.51
2016-11-03T01:51:51.856Z,21.46
2016-11-03T01:53:02.538Z,21.35
2016-11-03T01:54:13.255Z,21.44
2016-11-03T01:55:24.703Z,21.39
2016-11-03T01:56:35.862Z,21.46
2016-11-03T01:57:46.691Z,21.51
2016-11-03T01:58:57.363Z,21.44
2016-11-03T02:00:08.468Z,21.41
2016-11-03T02:01:19.513Z,21.46
2016-11-03T02:02:30.200Z,21.48
2016-11-03T02:03:41.395Z,21.51
2016-11-03T02:04:52.442Z,21.45
2016-11-03T02:06:03.558Z,21.38
2016-11-03T02:07:14.606Z,21.46
2016-11-03T02:08:26.496Z,21.54
2016-11-03T02:09:37.310Z,21.56
2016-11-03T02:10:48.431Z,21.63
2016-11-03T02:11:59.146Z,21.66
2016-11-03T02:13:09.806Z,21.64
2016-11-03T02:14:20.918Z,21.75
2016-11-03T02:15:31.578Z,21.78
2016-11-03T02:16:42.230Z,21.76
2016-11-03T02:17:53.684Z,21.67
2016-11-03T02:19:04.333Z,21.76
2016-11-03T02:20:15.055Z,21.71
2016-11-03T02:21:26.236Z,21.64
2016-11-03T02:22:36.947Z,21.71
2016-11-03T02:23:48.045Z,21.72
2016-11-03T02:24:58.756Z,21.67
2016-11-03T02:26:09.820Z,21.72
2016-11-03T02:27:20.548Z,21.66
2016-11-03T02:28:31.187Z,21.71
2016-11-03T02:29:41.927Z,21.64
2016-11-03T02:30:52.612Z,21.54
2016-11-03T02:32:03.372Z,21.56
2016-11-03T02:33:14.595Z,21.53
2016-11-03T02:34:25.776Z,21.48
2016-11-03T02:35:36.729Z,21.46
2016-11-03T02:36:47.465Z,21.45
2016-11-03T02:37:58.555Z,21.41
2016-11-03T02:39:09.240Z,21.41
2016-11-03T02:40:57.270Z,21.32
2016-11-03T02:42:08.383Z,21.36
2016-11-03T02:43:19.506Z,21.32
2016-11-03T02:44:30.649Z,21.34
2016-11-03T02:45:41.352Z,21.3
2016-11-03T02:46:52.479Z,21.32
2016-11-03T02:48:04.415Z,21.3
2016-11-03T02:49:15.097Z,21.35
2016-11-03T02:50:26.182Z,21.16
2016-11-03T02:51:37.260Z,21.14
2016-11-03T02:52:48.779Z,21.24
2016-11-03T02:53:59.887Z,21.16
2016-11-03T02:55:10.570Z,21.11
2016-11-03T02:56:21.373Z,21.19
2016-11-03T02:57:32.470Z,21.05
2016-11-03T02:58:43.222Z,21.14
2016-11-03T02:59:53.937Z,21.13
2016-11-03T03:01:05.358Z,21.09
2016-11-03T03:02:16.550Z,21.06
2016-11-03T03:03:27.268Z,21.11
2016-11-03T03:04:38.798Z,21.14
2016-11-03T03:05:49.470Z,21.06
2016-11-03T03:07:00.262Z,21.2
2016-11-03T03:08:11.893Z,21.13
2016-11-03T03:09:23.179Z,21.2
2016-11-03T03:10:34.315Z,21.27
2016-11-03T03:11:44.983Z,21.14
2016-11-03T03:12:56.088Z,21.26
2016-11-03T03:14:06.927Z,21.32
2016-11-03T03:15:18.037Z,21.34
2016-11-03T03:16:29.603Z,21.27
2016-11-03T03:17:40.290Z,21.3
2016-11-03T03:18:51.353Z,21.34
2016-11-03T03:20:02.538Z,21.34
2016-11-03T03:21:14.743Z,21.38
2016-11-03T03:22:25.906Z,21.5
2016-11-03T03:23:36.556Z,21.54
2016-11-03T03:24:47.381Z,21.56
2016-11-03T03:25:58.202Z,21.57
2016-11-03T03:27:08.980Z,21.53
2016-11-03T03:28:19.736Z,21.57
2016-11-03T03:29:30.808Z,21.53
2016-11-03T03:30:41.492Z,21.54
2016-11-03T03:31:52.591Z,21.61
2016-11-03T03:33:03.350Z,21.59
2016-11-03T03:34:14.156Z,21.57
2016-11-03T03:35:25.295Z,21.54
2016-11-03T03:36:36.417Z,21.57
2016-11-03T03:37:47.262Z,21.57
2016-11-03T03:38:57.995Z,21.57
2016-11-03T03:40:10.011Z,21.59
2016-11-03T03:41:20.700Z,21.57
2016-11-03T03:42:31.450Z,21.6
2016-11-03T03:43:43.003Z,21.63
2016-11-03T03:44:54.106Z,21.72
2016-11-03T03:46:05.999Z,21.66
2016-11-03T03:47:16.740Z,21.72
2016-11-03T03:48:27.506Z,21.79
2016-11-03T03:49:38.245Z,21.75
2016-11-03T03:50:49.372Z,21.64
2016-11-03T03:52:00.103Z,21.67
2016-11-03T03:53:10.768Z,21.6
2016-11-03T03:54:21.888Z,21.57
2016-11-03T03:55:33.064Z,21.53
2016-11-03T03:56:43.749Z,21.48
2016-11-03T03:57:54.531Z,21.46
2016-11-03T03:59:05.293Z,21.53
2016-11-03T04:00:15.976Z,21.46
2016-11-03T04:01:26.827Z,21.44
2016-11-03T04:02:37.572Z,21.5
2016-11-03T04:03:49.093Z,21.5
2016-11-03T04:05:00.631Z,21.54
2016-11-03T04:06:11.425Z,21.53
2016-11-03T04:07:22.153Z,21.48
2016-11-03T04:08:33.232Z,21.46
2016-11-03T04:09:44.357Z,21.48
2016-11-03T04:10:56.612Z,21.46
2016-11-03T04:12:07.727Z,21.44
2016-11-03T04:13:19.097Z,21.44
2016-11-03T04:14:30.125Z,21.36
2016-11-03T04:15:41.165Z,21.38
2016-11-03T04:16:51.834Z,21.27
2016-11-03T04:18:02.952Z,21.24
2016-11-03T04:19:14.152Z,21.14
2016-11-03T04:20:25.314Z,21.17
2016-11-03T04:21:36.159Z,21.11
2016-11-03T04:22:46.959Z,21.19
2016-11-03T04:23:57.852Z,21.17
2016-11-03T04:25:08.909Z,21.16
2016-11-03T04:26:19.937Z,21.26
2016-11-03T04:27:30.629Z,21.14
2016-11-03T04:28:41.396Z,21.16
2016-11-03T04:29:52.490Z,21.09
2016-11-03T04:31:03.926Z,21.09
2016-11-03T04:32:14.682Z,21.08
2016-11-03T04:33:25.390Z,21.05
2016-11-03T04:34:36.891Z,21.05
2016-11-03T04:35:48.343Z,21.14
2016-11-03T04:37:00.430Z,21.14
2016-11-03T04:38:11.195Z,21.02
2016-11-03T04:39:21.951Z,21.08
2016-11-03T04:40:32.667Z,21.06
2016-11-03T04:41:43.423Z,21.13
2016-11-03T04:42:54.679Z,21.05
2016-11-03T04:44:05.753Z,21.06
2016-11-03T04:45:16.812Z,21.05
2016-11-03T04:46:27.922Z,21.04
2016-11-03T04:47:38.696Z,21.06
2016-11-03T04:48:49.783Z,21.06
2016-11-03T04:50:00.560Z,21.04
2016-11-03T04:51:11.664Z,21.08
2016-11-03T04:52:22.704Z,21.11
2016-11-03T04:53:33.799Z,21.05
2016-11-03T04:54:45.333Z,21.08
2016-11-03T04:55:56.455Z,21.04
2016-11-03T04:57:07.199Z,21.01
2016-11-03T04:58:18.013Z,20.93
2016-11-03T04:59:28.728Z,21.01
2016-11-03T05:00:39.663Z,21.04
2016-11-03T05:01:50.357Z,21.05
2016-11-03T05:03:01.555Z,21.13
2016-11-03T05:04:12.262Z,21.08
2016-11-03T05:05:22.911Z,21.14
2016-11-03T05:06:34.000Z,21.05
2016-11-03T05:07:45.155Z,21.13
2016-11-03T05:08:55.881Z,21.08
2016-11-03T05:10:07.352Z,21.13
2016-11-03T05:11:18.500Z,21.2
2016-11-03T05:12:29.212Z,21.06
2016-11-03T05:13:40.279Z,21.09
2016-11-03T05:14:51.343Z,21.08
2016-11-03T05:16:02.445Z,21.08
2016-11-03T05:17:14.298Z,21.05
2016-11-03T05:18:25.503Z,21.08
2016-11-03T05:19:36.248Z,21.13
2016-11-03T05:20:47.343Z,21.16
2016-11-03T05:21:58.022Z,21.13
2016-11-03T05:23:09.153Z,21.08
2016-11-03T05:24:20.747Z,21.08
2016-11-03T05:25:31.506Z,21.02
2016-11-03T05:26:42.550Z,21.08
2016-11-03T05:27:53.308Z,21.06
2016-11-03T05:29:04.786Z,21.13
2016-11-03T05:30:16.361Z,21.13
2016-11-03T05:31:27.452Z,21.11
2016-11-03T05:32:38.181Z,21.11
2016-11-03T05:33:49.667Z,21.13
2016-11-03T05:35:00.725Z,21.14
2016-11-03T05:36:11.888Z,21.11
2016-11-03T05:37:22.940Z,21.14
2016-11-03T05:38:33.665Z,21.09
2016-11-03T05:39:45.160Z,21.16
2016-11-03T05:40:57.016Z,21.14
2016-11-03T05:42:07.690Z,21.13
2016-11-03T05:43:19.080Z,21.17
2016-11-03T05:45:01.465Z,21.19
2016-11-03T05:46:16.027Z,21.11
2016-11-03T05:47:27.593Z,21.09
2016-11-03T05:48:39.141Z,21.16
2016-11-03T05:49:49.864Z,21.14
2016-11-03T05:51:00.601Z,21.13
2016-11-03T05:52:11.709Z,21.13
2016-11-03T05:53:22.945Z,21.13
2016-11-03T05:54:34.857Z,21.17
2016-11-03T05:55:45.560Z,21.17
2016-11-03T05:56:56.592Z,21.2
2016-11-03T05:58:07.689Z,21.14
2016-11-03T05:59:18.759Z,21.16
2016-11-03T06:00:29.836Z,21.14
2016-11-03T06:01:40.949Z,21.16
2016-11-03T06:02:52.038Z,21.13
2016-11-03T06:04:03.110Z,21.24
2016-11-03T06:05:14.211Z,21.26
2016-11-03T06:06:24.923Z,21.13
2016-11-03T06:07:36.862Z,21.16
2016-11-03T06:08:47.656Z,21.13
2016-11-03T06:10:02.390Z,21.06
2016-11-03T06:11:13.628Z,21.16
2016-11-03T06:12:24.377Z,21.14
2016-11-03T06:13:35.553Z,21.09
2016-11-03T06:14:47.031Z,21.16
2016-11-03T06:15:57.797Z,21.13
2016-11-03T06:17:08.570Z,21.11
2016-11-03T06:18:19.325Z,21.14
2016-11-03T06:19:30.354Z,21.11
2016-11-03T06:20:41.377Z,21.11
2016-11-03T06:21:52.407Z,21.14
2016-11-03T06:23:03.495Z,21.16
2016-11-03T06:24:14.594Z,21.14
2016-11-03T06:25:25.338Z,21.11
2016-11-03T06:26:36.065Z,21.08
2016-11-03T06:27:46.771Z,21.04
2016-11-03T06:28:58.622Z,21.04
2016-11-03T06:30:09.380Z,21.11
2016-11-03T06:31:20.615Z,21.13
2016-11-03T06:32:32.375Z,21.11
2016-11-03T06:33:43.523Z,21.14
2016-11-03T06:34:55.100Z,21.13
2016-11-03T06:36:06.691Z,21.14
2016-11-03T06:37:18.195Z,21.04
2016-11-03T06:38:28.955Z,21.04
2016-11-03T06:39:39.715Z,21.13
2016-11-03T06:40:50.636Z,21.13
2016-11-03T06:42:02.149Z,21.04
2016-11-03T06:43:13.709Z,21.16
2016-11-03T06:44:24.460Z,21.05
2016-11-03T06:45:35.174Z,21.09
2016-11-03T06:46:45.867Z,21.06
2016-11-03T06:47:56.939Z,21.08
2016-11-03T06:49:07.611Z,21.11
2016-11-03T06:50:18.685Z,21.11
2016-11-03T06:51:29.391Z,21.16
2016-11-03T06:52:41.251Z,21.09
2016-11-03T06:53:51.924Z,21.04
2016-11-03T06:55:03.038Z,21.11
2016-11-03T06:56:14.080Z,21.09
2016-11-03T06:57:25.243Z,21.11
2016-11-03T06:58:36.021Z,21.06
2016-11-03T06:59:47.031Z,21.01
2016-11-03T07:00:57.720Z,21.09
2016-11-03T07:02:08.452Z,21.11
2016-11-03T07:03:19.610Z,21.14
2016-11-03T07:04:30.769Z,21.06
2016-11-03T07:05:41.868Z,21.13
2016-11-03T07:06:52.552Z,21.11
2016-11-03T07:08:03.298Z,21.21
2016-11-03T07:09:14.416Z,21.14
2016-11-03T07:10:25.867Z,21.13
2016-11-03T07:11:37.055Z,21.11
2016-11-03T07:12:48.670Z,21.09
2016-11-03T07:13:59.419Z,21.09
2016-11-03T07:15:10.065Z,21.08
2016-11-03T07:16:21.607Z,21.21
2016-11-03T07:17:32.312Z,21.19
2016-11-03T07:18:43.975Z,21.26
2016-11-03T07:19:54.658Z,21.24
2016-11-03T07:21:06.235Z,21.29
2016-11-03T07:22:17.398Z,21.32
2016-11-03T07:23:28.144Z,21.38
2016-11-03T07:24:39.248Z,21.36
2016-11-03T07:25:49.941Z,21.36
2016-11-03T07:27:00.647Z,21.35
2016-11-03T07:28:11.969Z,21.35
2016-11-03T07:29:23.027Z,21.32
2016-11-03T07:30:34.133Z,21.35
2016-11-03T07:31:44.817Z,21.35
2016-11-03T07:32:56.688Z,21.36
2016-11-03T07:34:08.181Z,21.44
2016-11-03T07:35:18.922Z,21.41
2016-11-03T07:36:30.438Z,21.41
2016-11-03T07:37:41.134Z,21.36
2016-11-03T07:38:52.202Z,21.44
2016-11-03T07:40:03.255Z,21.44
2016-11-03T07:41:14.817Z,21.41
2016-11-03T07:42:25.573Z,21.41
2016-11-03T07:43:36.662Z,21.5
2016-11-03T07:44:47.390Z,21.36
2016-11-03T07:45:58.155Z,21.41
2016-11-03T07:47:09.274Z,21.44
2016-11-03T07:48:20.009Z,21.36
2016-11-03T07:49:31.093Z,21.44
2016-11-03T07:50:42.648Z,21.36
2016-11-03T07:51:54.221Z,21.35
2016-11-03T07:53:04.855Z,21.38
2016-11-03T07:54:16.360Z,21.39
2016-11-03T07:55:28.212Z,21.41
2016-11-03T07:56:38.978Z,21.42
2016-11-03T07:57:50.096Z,21.5
2016-11-03T07:59:01.209Z,21.42
2016-11-03T08:00:12.342Z,21.45
2016-11-03T08:01:23.082Z,21.44
2016-11-03T08:02:34.200Z,21.42
2016-11-03T08:03:44.959Z,21.45
2016-11-03T08:04:55.625Z,21.5
2016-11-03T08:06:06.758Z,21.53
2016-11-03T08:07:17.474Z,21.53
2016-11-03T08:08:28.702Z,21.46
2016-11-03T08:09:39.577Z,21.5
2016-11-03T08:10:50.311Z,21.48
2016-11-03T08:12:01.444Z,21.53
2016-11-03T08:13:12.977Z,21.54
2016-11-03T08:14:23.704Z,21.48
2016-11-03T08:15:34.374Z,21.51
2016-11-03T08:16:45.888Z,21.5
2016-11-03T08:17:56.981Z,21.54
2016-11-03T08:19:07.703Z,21.5
2016-11-03T08:20:18.407Z,21.48
2016-11-03T08:21:29.119Z,21.5
2016-11-03T08:22:40.254Z,21.46
2016-11-03T08:23:50.967Z,21.46
2016-11-03T08:25:02.414Z,21.44
2016-11-03T08:26:13.115Z,21.46
2016-11-03T08:27:23.967Z,21.53
2016-11-03T08:28:35.049Z,21.53
2016-11-03T08:29:46.152Z,21.54
2016-11-03T08:30:57.646Z,21.56
2016-11-03T08:32:08.380Z,21.5
2016-11-03T08:33:19.961Z,21.56
2016-11-03T08:34:31.054Z,21.6
2016-11-03T08:35:41.725Z,21.56
2016-11-03T08:36:52.834Z,21.57
2016-11-03T08:38:03.542Z,21.57
2016-11-03T08:39:14.287Z,21.56
2016-11-03T08:40:24.937Z,21.56
2016-11-03T08:41:36.048Z,21.6
2016-11-03T08:42:47.122Z,21.63
2016-11-03T08:43:57.930Z,21.67
2016-11-03T08:45:09.022Z,21.66
2016-11-03T08:46:19.763Z,21.71
2016-11-03T08:47:30.877Z,21.69
2016-11-03T08:48:41.584Z,21.67
2016-11-03T08:49:52.295Z,21.64
2016-11-03T08:51:03.447Z,21.72
2016-11-03T08:52:14.172Z,21.72
2016-11-03T08:53:24.920Z,21.74
2016-11-03T08:54:35.599Z,21.72
2016-11-03T08:55:46.731Z,21.82
2016-11-03T08:56:57.538Z,21.71
2016-11-03T08:58:09.028Z,21.72
2016-11-03T08:59:20.122Z,21.78
2016-11-03T09:00:30.866Z,21.81
2016-11-03T09:01:42.393Z,21.88
2016-11-03T09:02:53.516Z,21.88
2016-11-03T09:04:05.019Z,21.79
2016-11-03T09:05:16.164Z,21.83
2016-11-03T09:06:27.294Z,21.88
2016-11-03T09:07:38.437Z,21.85
2016-11-03T09:08:49.622Z,21.83
2016-11-03T09:10:00.399Z,21.85
2016-11-03T09:11:11.485Z,21.9
2016-11-03T09:12:22.625Z,21.94
2016-11-03T09:13:33.827Z,21.97
2016-11-03T09:14:45.034Z,21.91
2016-11-03T09:15:55.722Z,21.95
2016-11-03T09:17:06.864Z,22.09
2016-11-03T09:18:18.364Z,22.12
2016-11-03T09:19:29.806Z,22.04
2016-11-03T09:20:40.548Z,22.04
2016-11-03T09:21:51.237Z,22.06
2016-11-03T09:23:02.309Z,21.98
2016-11-03T09:24:13.041Z,21.92
2016-11-03T09:25:27.577Z,21.92
2016-11-03T09:26:38.383Z,21.85
2016-11-03T09:27:49.436Z,21.9
2016-11-03T09:29:00.562Z,21.9
2016-11-03T09:30:11.267Z,21.91
2016-11-03T09:31:22.784Z,21.88
2016-11-03T09:32:33.617Z,21.9
2016-11-03T09:33:44.717Z,21.82
2016-11-03T09:34:55.776Z,21.76
2016-11-03T09:36:07.291Z,21.81
2016-11-03T09:37:17.956Z,21.82
2016-11-03T09:38:28.681Z,21.81
2016-11-03T09:39:39.369Z,21.82
2016-11-03T09:40:50.010Z,21.81
2016-11-03T09:42:01.095Z,21.81
2016-11-03T09:43:12.252Z,21.83
2016-11-03T09:44:23.408Z,21.81
2016-11-03T09:45:34.178Z,21.83
2016-11-03T09:46:45.272Z,21.9
2016-11-03T09:47:57.093Z,21.92
2016-11-03T09:49:07.836Z,21.88
2016-11-03T09:50:19.077Z,21.98
2016-11-03T09:51:30.936Z,21.85
2016-11-03T09:52:42.024Z,21.9
2016-11-03T09:53:53.521Z,21.91
2016-11-03T09:55:04.661Z,21.78
2016-11-03T09:56:16.225Z,21.78
2016-11-03T09:57:26.932Z,21.72
2016-11-03T09:58:38.490Z,21.32
2016-11-03T09:59:49.206Z,20.87
2016-11-03T10:01:00.686Z,20.58
2016-11-03T10:02:11.718Z,20.46
2016-11-03T10:03:22.775Z,20.33
2016-11-03T10:04:35.044Z,20.24
2016-11-03T10:05:46.095Z,20.24
2016-11-03T10:06:58.000Z,20.28
2016-11-03T10:08:08.804Z,20.27
2016-11-03T10:09:19.863Z,20.08
2016-11-03T10:10:30.613Z,20.1
2016-11-03T10:11:41.772Z,20.1
2016-11-03T10:12:52.844Z,20.12
2016-11-03T10:14:03.997Z,20.15
2016-11-03T10:15:15.036Z,20.06
2016-11-03T10:16:25.736Z,20.18
2016-11-03T10:17:37.221Z,20.34
2016-11-03T10:18:47.937Z,20.31
2016-11-03T10:19:59.211Z,20.31
2016-11-03T10:21:09.920Z,20.34
2016-11-03T10:22:21.027Z,20.35
2016-11-03T10:23:31.726Z,20.38
2016-11-03T10:24:42.883Z,20.31
2016-11-03T10:25:53.687Z,20.28
2016-11-03T10:27:04.368Z,20.35
2016-11-03T10:28:15.171Z,20.28
2016-11-03T10:29:26.307Z,20.3
2016-11-03T10:30:37.060Z,20.24
2016-11-03T10:31:48.647Z,20.25
2016-11-03T10:32:59.774Z,20.27
2016-11-03T10:34:10.435Z,20.3
2016-11-03T10:35:21.551Z,20.24
2016-11-03T10:36:32.681Z,20.12
2016-11-03T10:37:43.892Z,20.13
2016-11-03T10:38:54.581Z,20.16
2016-11-03T10:40:05.254Z,20.03
2016-11-03T10:41:15.960Z,20.09
2016-11-03T10:42:27.147Z,20.12
2016-11-03T10:43:52.532Z,20.24
2016-11-03T10:45:04.047Z,20.25
2016-11-03T10:46:14.807Z,20.25
2016-11-03T10:47:25.963Z,20.34
2016-11-03T10:48:36.735Z,20.35
2016-11-03T10:49:48.564Z,20.49
2016-11-03T10:50:59.292Z,20.41
2016-11-03T10:52:10.349Z,20.42
2016-11-03T10:53:21.055Z,20.38
2016-11-03T10:54:31.864Z,20.42
2016-11-03T10:55:43.448Z,20.47
2016-11-03T10:56:54.498Z,20.43
2016-11-03T10:58:05.728Z,20.49
2016-11-03T10:59:16.901Z,20.53
2016-11-03T11:00:28.852Z,20.46
2016-11-03T11:01:39.557Z,20.41
2016-11-03T11:02:50.658Z,20.24
2016-11-03T11:04:01.394Z,20.34
2016-11-03T11:05:13.233Z,20.33
2016-11-03T11:06:23.979Z,20.33
2016-11-03T11:07:35.937Z,20.35
2016-11-03T11:08:47.084Z,20.3
2016-11-03T11:09:57.833Z,20.3
2016-11-03T11:11:08.980Z,20.27
2016-11-03T11:12:20.192Z,20.27
2016-11-03T11:13:31.334Z,20.23
2016-11-03T11:14:41.987Z,20.13
2016-11-03T11:15:53.119Z,20.24
2016-11-03T11:17:04.213Z,20.2
2016-11-03T11:18:15.920Z,20.16
2016-11-03T11:19:27.000Z,20.13
2016-11-03T11:20:38.087Z,19.97
2016-11-03T11:21:48.816Z,20.08
2016-11-03T11:22:59.501Z,19.98
2016-11-03T11:24:11.130Z,19.97
2016-11-03T11:25:22.220Z,19.94
2016-11-03T11:26:33.685Z,19.78
2016-11-03T11:27:44.403Z,19.78
2016-11-03T11:28:55.135Z,19.8
2016-11-03T11:30:05.896Z,19.9
2016-11-03T11:31:16.524Z,19.94
2016-11-03T11:32:27.663Z,19.86
2016-11-03T11:33:38.694Z,19.7
2016-11-03T11:34:49.338Z,19.69
2016-11-03T11:36:00.570Z,19.68
2016-11-03T11:37:11.261Z,19.72
2016-11-03T11:38:22.359Z,19.63
2016-11-03T11:39:33.484Z,19.66
2016-11-03T11:40:44.586Z,19.66
2016-11-03T11:41:56.108Z,19.65
2016-11-03T11:43:06.821Z,19.66
2016-11-03T11:44:17.588Z,19.7
2016-11-03T11:45:28.687Z,19.73
2016-11-03T11:46:39.426Z,19.69
2016-11-03T11:47:50.323Z,19.72
2016-11-03T11:49:01.448Z,19.75
2016-11-03T11:50:12.456Z,19.69
2016-11-03T11:51:23.729Z,19.72
2016-11-03T11:52:34.899Z,19.75
2016-11-03T11:53:45.687Z,19.69
2016-11-03T11:54:57.241Z,19.78
2016-11-03T11:56:08.355Z,19.79
2016-11-03T11:57:20.578Z,19.84
2016-11-03T11:58:31.629Z,19.84
2016-11-03T11:59:43.168Z,19.7
2016-11-03T12:00:53.900Z,19.63
2016-11-03T12:02:04.587Z,19.78
2016-11-03T12:03:15.333Z,19.83
2016-11-03T12:04:26.017Z,19.87
2016-11-03T12:05:36.733Z,19.87
2016-11-03T12:06:47.848Z,19.95
2016-11-03T12:07:58.935Z,20.05
2016-11-03T12:09:09.613Z,19.94
2016-11-03T12:10:20.787Z,19.93
2016-11-03T12:11:32.048Z,19.88
2016-11-03T12:12:43.152Z,19.9
2016-11-03T12:13:53.822Z,19.84
2016-11-03T12:15:04.490Z,19.83
2016-11-03T12:16:15.279Z,19.88
2016-11-03T12:17:26.149Z,19.79
2016-11-03T12:18:36.821Z,19.94
2016-11-03T12:19:47.546Z,19.93
2016-11-03T12:20:58.298Z,19.86
2016-11-03T12:22:09.052Z,19.83
2016-11-03T12:23:20.235Z,19.73
2016-11-03T12:24:31.755Z,19.72
2016-11-03T12:25:43.248Z,19.66
2016-11-03T12:26:54.316Z,19.63
2016-11-03T12:28:05.367Z,19.48
2016-11-03T12:29:16.106Z,19.66
2016-11-03T12:30:26.842Z,19.6
2016-11-03T12:31:37.942Z,19.61
2016-11-03T12:32:48.539Z,19.53
2016-11-03T12:33:59.337Z,19.6
2016-11-03T12:35:10.544Z,19.66
2016-11-03T12:36:21.720Z,19.47
2016-11-03T12:37:32.429Z,19.57
2016-11-03T12:38:43.445Z,19.46
2016-11-03T12:39:54.581Z,19.55
2016-11-03T12:41:05.439Z,19.57
2016-11-03T12:42:16.941Z,19.61
2016-11-03T12:43:28.065Z,19.58
2016-11-03T12:44:38.810Z,19.65
2016-11-03T12:45:49.509Z,19.63
2016-11-03T12:47:00.844Z,19.8
2016-11-03T12:48:11.897Z,19.9
2016-11-03T12:49:23.518Z,19.78
2016-11-03T12:50:34.267Z,19.75
2016-11-03T12:51:44.949Z,19.76
2016-11-03T12:52:55.667Z,19.7
2016-11-03T12:54:06.355Z,19.66
2016-11-03T12:55:17.594Z,19.66
2016-11-03T12:56:28.359Z,19.73
2016-11-03T12:57:40.159Z,19.83
2016-11-03T12:58:50.946Z,19.86
2016-11-03T13:00:02.089Z,19.98
2016-11-03T13:01:14.151Z,20.24
2016-11-03T13:02:25.636Z,20.47
2016-11-03T13:03:36.309Z,20.99
2016-11-03T13:04:47.584Z,21.09
2016-11-03T13:05:58.742Z,21.27
2016-11-03T13:07:09.901Z,21.34
2016-11-03T13:08:20.985Z,21.17
2016-11-03T13:09:32.205Z,21.11
2016-11-03T13:10:43.736Z,20.89
2016-11-03T13:11:54.476Z,20.8
2016-11-03T13:13:05.532Z,20.62
2016-11-03T13:14:16.292Z,20.58
2016-11-03T13:15:27.426Z,20.68
2016-11-03T13:16:38.713Z,20.65
2016-11-03T13:17:50.582Z,20.68
2016-11-03T13:19:01.756Z,20.65
2016-11-03T13:20:12.999Z,20.8
2016-11-03T13:21:24.491Z,20.69
2016-11-03T13:22:35.664Z,20.8
2016-11-03T13:23:46.426Z,20.77
2016-11-03T13:24:57.153Z,20.81
2016-11-03T13:26:07.872Z,20.71
2016-11-03T13:27:18.943Z,20.54
2016-11-03T13:28:30.126Z,20.41
2016-11-03T13:29:40.862Z,20.25
2016-11-03T13:30:51.942Z,20.23
2016-11-03T13:32:02.697Z,20.1
2016-11-03T13:33:13.414Z,19.98
2016-11-03T13:34:24.606Z,19.95
2016-11-03T13:35:35.737Z,19.9
2016-11-03T13:36:47.463Z,19.86
2016-11-03T13:37:58.203Z,19.84
2016-11-03T13:39:09.279Z,19.86
2016-11-03T13:40:19.957Z,19.88
2016-11-03T13:41:32.260Z,19.83
2016-11-03T13:42:43.351Z,19.9
2016-11-03T13:43:54.378Z,19.79
2016-11-03T13:45:05.818Z,19.69
2016-11-03T13:46:16.661Z,19.73
2016-11-03T13:47:27.337Z,19.8
2016-11-03T13:48:38.835Z,19.83
2016-11-03T13:49:49.919Z,19.87
2016-11-03T13:51:01.345Z,19.72
2016-11-03T13:52:12.488Z,19.87
2016-11-03T13:53:23.555Z,19.79
2016-11-03T13:54:34.582Z,19.83
2016-11-03T13:55:45.614Z,19.84
2016-11-03T13:56:56.679Z,19.86
2016-11-03T13:58:07.340Z,19.84
2016-11-03T13:59:18.809Z,19.91
2016-11-03T14:00:30.329Z,19.84
2016-11-03T14:01:41.776Z,19.68
2016-11-03T14:02:53.239Z,19.72
2016-11-03T14:04:04.530Z,19.53
2016-11-03T14:05:15.192Z,19.43
2016-11-03T14:06:27.010Z,19.39
2016-11-03T14:07:37.862Z,19.73
2016-11-03T14:08:48.506Z,19.86
2016-11-03T14:09:59.568Z,19.93
2016-11-03T14:11:10.592Z,19.8
2016-11-03T14:12:21.667Z,19.78
2016-11-03T14:13:33.254Z,19.84
2016-11-03T14:14:43.866Z,19.84
2016-11-03T14:15:55.010Z,19.72
2016-11-03T14:17:05.640Z,19.7
2016-11-03T14:18:16.256Z,19.65
2016-11-03T14:19:28.386Z,19.69
2016-11-03T14:20:39.014Z,19.63
2016-11-03T14:21:50.216Z,19.61
2016-11-03T14:23:01.734Z,19.55
2016-11-03T14:24:12.912Z,19.57
2016-11-03T14:25:24.776Z,19.58
2016-11-03T14:26:35.823Z,19.61
2016-11-03T14:27:47.317Z,19.7
2016-11-03T14:28:58.735Z,19.79
2016-11-03T14:30:09.354Z,19.8
2016-11-03T14:31:19.997Z,19.73
2016-11-03T14:32:31.144Z,19.76
2016-11-03T14:33:42.593Z,19.78
2016-11-03T14:34:53.621Z,19.69
2016-11-03T14:36:04.265Z,19.75
2016-11-03T14:37:14.935Z,19.78
2016-11-03T14:38:26.026Z,19.75
2016-11-03T14:39:37.744Z,19.66
2016-11-03T14:40:48.773Z,19.76
2016-11-03T14:41:59.964Z,19.8
2016-11-03T14:43:11.417Z,19.86
2016-11-03T14:44:22.264Z,19.9
2016-11-03T14:45:33.279Z,19.95
2016-11-03T14:46:45.793Z,19.87
2016-11-03T14:47:57.221Z,19.95
2016-11-03T14:49:08.260Z,19.93
2016-11-03T14:50:18.939Z,19.91
2016-11-03T14:51:29.691Z,19.95
2016-11-03T14:52:41.349Z,19.93
2016-11-03T14:53:52.349Z,19.94
2016-11-03T14:55:03.370Z,19.88
2016-11-03T14:56:14.469Z,19.87
2016-11-03T14:57:25.144Z,19.98
2016-11-03T14:58:37.412Z,19.95
2016-11-03T14:59:49.426Z,19.9
2016-11-03T15:01:00.094Z,19.95
2016-11-03T15:02:10.701Z,20.03
2016-11-03T15:03:22.881Z,20.08
2016-11-03T15:04:33.933Z,20.1
2016-11-03T15:05:44.971Z,20.15
2016-11-03T15:06:56.406Z,20.15
2016-11-03T15:08:07.560Z,20.15
2016-11-03T15:09:18.565Z,20.15
2016-11-03T15:10:29.212Z,20.15
2016-11-03T15:11:41.136Z,20.25
2016-11-03T15:12:52.255Z,20.21
2016-11-03T15:14:02.918Z,20.12
2016-11-03T15:15:14.099Z,19.97
2016-11-03T15:16:25.125Z,20.08
2016-11-03T15:17:36.349Z,19.98
2016-11-03T15:18:48.080Z,19.9